Time;durP1;ratioP1;P1;durP2;ratioP2;P2;SDS_P1;SDS_P2;PMS_P1;PMS_P2;Temp;Humidity;BMP_temperature;BMP_pressure;BME280_temperature;BME280_humidity;BME280_pressure;Samples;Min_cycle;Max_cycle;Signal;HPM_P1;HPM_P2
2023/08/26 00:00:32;;;;;;;8.27;7.32;;;;;;;17.92;100.00;100554.19;4913432;29;20224;-47
2023/08/26 00:02:58;;;;;;;8.13;7.32;;;;;;;17.89;100.00;100557.16;4916989;29;20525;-48
2023/08/26 00:05:23;;;;;;;10.65;8.50;;;;;;;17.79;100.00;100556.03;4918177;29;20195;-47
2023/08/26 00:07:49;;;;;;;9.27;7.07;;;;;;;17.74;100.00;100559.09;4917450;29;20191;-48
2023/08/26 00:10:15;;;;;;;8.15;7.22;;;;;;;17.83;100.00;100557.59;4911907;29;20643;-48
2023/08/26 00:12:40;;;;;;;10.00;8.70;;;;;;;17.78;100.00;100562.47;4916308;29;23135;-48
2023/08/26 00:15:06;;;;;;;10.88;9.18;;;;;;;17.70;100.00;100563.00;4918783;29;20239;-49
2023/08/26 00:17:32;;;;;;;11.15;8.63;;;;;;;17.65;100.00;100563.34;4913101;29;20211;-48
2023/08/26 00:19:58;;;;;;;9.30;8.40;;;;;;;17.66;100.00;100558.78;4914667;29;20217;-48
2023/08/26 00:22:24;;;;;;;9.13;7.50;;;;;;;17.59;100.00;100547.50;4917744;29;20191;-47
2023/08/26 00:24:51;;;;;;;9.07;8.18;;;;;;;17.54;100.00;100562.38;4915302;29;20192;-46
2023/08/26 00:27:16;;;;;;;10.40;8.40;;;;;;;17.52;100.00;100550.78;4914929;29;20188;-48
2023/08/26 00:29:43;;;;;;;7.60;6.80;;;;;;;17.59;100.00;100558.34;4911323;29;20210;-47
2023/08/26 00:32:09;;;;;;;9.55;6.97;;;;;;;17.63;100.00;100561.72;4931179;29;20179;-47
2023/08/26 00:34:34;;;;;;;8.55;7.43;;;;;;;17.49;100.00;100557.28;4912674;29;20224;-47
2023/08/26 00:37:00;;;;;;;11.65;6.70;;;;;;;17.44;100.00;100554.03;4930559;29;20208;-46
2023/08/26 00:39:26;;;;;;;8.90;6.93;;;;;;;17.28;100.00;100563.25;4916442;29;20285;-47
2023/08/26 00:41:51;;;;;;;9.02;5.82;;;;;;;17.35;100.00;100565.53;4915136;29;20556;-47
2023/08/26 00:44:17;;;;;;;6.40;5.22;;;;;;;17.47;100.00;100560.09;4915573;29;20606;-47
2023/08/26 00:46:45;;;;;;;9.57;6.00;;;;;;;17.36;100.00;100548.28;4914407;29;20587;-47
2023/08/26 00:49:11;;;;;;;10.35;5.47;;;;;;;17.32;100.00;100561.19;4917621;29;20208;-47
2023/08/26 00:51:37;;;;;;;6.15;5.55;;;;;;;17.26;100.00;100557.06;4926981;29;20207;-47
2023/08/26 00:54:04;;;;;;;5.55;5.07;;;;;;;17.34;100.00;100551.13;4917013;29;20197;-47
2023/08/26 00:56:32;;;;;;;7.70;5.63;;;;;;;17.25;100.00;100559.88;4912479;29;20263;-48
2023/08/26 00:58:58;;;;;;;10.75;5.05;;;;;;;17.30;100.00;100558.59;4913562;29;20324;-47
2023/08/26 01:01:24;;;;;;;6.25;5.30;;;;;;;17.23;100.00;100559.13;4928730;29;20200;-47
2023/08/26 01:03:50;;;;;;;8.73;5.53;;;;;;;17.28;100.00;100547.00;4912918;29;20188;-47
2023/08/26 01:06:16;;;;;;;9.73;6.18;;;;;;;17.24;100.00;100555.44;4915014;29;20195;-49
2023/08/26 01:08:42;;;;;;;9.52;6.30;;;;;;;17.13;100.00;100555.34;4929780;29;20858;-48
2023/08/26 01:11:19;;;;;;;7.32;5.53;;;;;;;17.28;100.00;100556.97;4919636;29;20329;-48
2023/08/26 01:14:08;;;;;;;8.15;5.80;;;;;;;17.28;100.00;100551.56;4927930;29;20188;-47
2023/08/26 01:16:35;;;;;;;7.15;5.80;;;;;;;17.29;100.00;100550.56;4926947;29;20256;-47
2023/08/26 01:19:01;;;;;;;9.25;6.15;;;;;;;17.15;100.00;100542.56;4918397;29;20238;-47
2023/08/26 01:21:35;;;;;;;7.75;4.90;;;;;;;17.34;100.00;100542.13;4914439;29;20253;-46
2023/08/26 01:24:00;;;;;;;12.15;7.80;;;;;;;17.16;100.00;100553.28;4929812;29;20199;-48
2023/08/26 01:26:26;;;;;;;9.05;6.65;;;;;;;17.22;100.00;100551.97;4914331;29;20659;-47
2023/08/26 01:28:52;;;;;;;7.43;6.18;;;;;;;17.27;100.00;100536.25;4920218;29;20200;-49
2023/08/26 01:31:19;;;;;;;9.18;6.30;;;;;;;17.26;100.00;100527.28;4930668;29;20196;-49
2023/08/26 01:34:06;;;;;;;11.65;6.95;;;;;;;17.29;100.00;100529.78;4931963;29;20194;-48
2023/08/26 01:36:37;;;;;;;5.82;5.32;;;;;;;17.33;100.00;100534.97;4916543;29;20275;-47
2023/08/26 01:39:04;;;;;;;10.98;6.25;;;;;;;17.33;100.00;100549.38;4914758;29;20204;-47
2023/08/26 01:41:31;;;;;;;10.07;6.47;;;;;;;17.21;100.00;100553.84;4930743;29;20188;-47
2023/08/26 01:43:57;;;;;;;9.05;6.55;;;;;;;17.18;100.00;100545.91;4922444;29;20654;-47
2023/08/26 01:46:39;;;;;;;6.50;5.90;;;;;;;17.27;100.00;100549.81;4917296;29;20502;-47
2023/08/26 01:49:05;;;;;;;6.57;5.63;;;;;;;17.27;100.00;100538.97;4916036;29;20203;-48
2023/08/26 01:51:32;;;;;;;7.40;6.70;;;;;;;17.23;100.00;100534.75;4927397;29;20246;-48
2023/08/26 01:53:57;;;;;;;6.75;6.15;;;;;;;17.27;100.00;100531.75;4936544;29;20212;-47
2023/08/26 01:56:23;;;;;;;10.57;6.57;;;;;;;17.22;100.00;100533.88;4932323;29;20939;-47
2023/08/26 01:58:49;;;;;;;8.98;6.25;;;;;;;17.31;100.00;100518.84;4915860;29;20415;-48
2023/08/26 02:01:15;;;;;;;7.25;5.50;;;;;;;17.32;100.00;100508.84;4922437;29;20936;-47
2023/08/26 02:03:41;;;;;;;8.93;6.57;;;;;;;17.29;100.00;100510.84;4919551;29;20183;-47
2023/08/26 02:06:07;;;;;;;5.95;5.35;;;;;;;17.38;100.00;100508.44;4916668;29;20271;-47
2023/08/26 02:08:32;;;;;;;8.15;6.60;;;;;;;17.35;100.00;100514.06;4930971;29;20558;-48
2023/08/26 02:10:58;;;;;;;8.60;6.72;;;;;;;17.33;100.00;100505.19;4922109;29;20176;-48
2023/08/26 02:13:25;;;;;;;8.45;7.53;;;;;;;17.29;100.00;100507.25;4917367;29;20263;-47
2023/08/26 02:15:51;;;;;;;12.27;6.70;;;;;;;17.38;100.00;100503.91;4927109;29;20180;-47
2023/08/26 02:18:17;;;;;;;8.05;7.25;;;;;;;17.25;100.00;100495.78;4921974;29;20551;-48
2023/08/26 02:20:44;;;;;;;10.65;7.28;;;;;;;17.24;100.00;100496.75;4918580;29;20219;-46
2023/08/26 02:23:10;;;;;;;8.35;7.55;;;;;;;17.26;100.00;100500.22;4915214;29;20251;-49
2023/08/26 02:25:35;;;;;;;7.80;7.07;;;;;;;17.32;100.00;100495.31;4916550;29;20184;-50
2023/08/26 02:28:02;;;;;;;7.78;6.88;;;;;;;17.28;100.00;100483.88;4938102;29;20380;-48
2023/08/26 02:30:29;;;;;;;8.68;7.35;;;;;;;17.23;100.00;100488.72;4916524;29;20207;-47
2023/08/26 02:32:54;;;;;;;10.98;7.32;;;;;;;17.11;100.00;100489.63;4918148;29;20175;-48
2023/08/26 02:35:20;;;;;;;11.55;6.85;;;;;;;17.12;100.00;100485.91;4921909;29;20336;-47
2023/08/26 02:37:45;;;;;;;9.07;6.82;;;;;;;17.09;100.00;100490.56;4920979;29;20200;-48
2023/08/26 02:40:11;;;;;;;8.02;7.18;;;;;;;17.09;100.00;100496.00;4913789;29;20697;-48
2023/08/26 02:42:36;;;;;;;7.50;6.82;;;;;;;17.15;100.00;100499.25;4935743;29;20350;-48
2023/08/26 02:45:04;;;;;;;8.60;6.03;;;;;;;17.15;100.00;100505.53;4919290;29;20262;-48
2023/08/26 02:47:30;;;;;;;7.30;6.50;;;;;;;17.20;100.00;100506.06;4917830;29;20183;-46
2023/08/26 02:49:57;;;;;;;10.18;8.00;;;;;;;17.11;100.00;100504.00;4928620;29;20306;-47
2023/08/26 02:52:23;;;;;;;8.25;7.05;;;;;;;17.15;100.00;100504.66;4921238;29;20636;-47
2023/08/26 02:54:49;;;;;;;6.63;6.03;;;;;;;17.20;100.00;100497.94;4917761;29;20292;-49
2023/08/26 02:57:14;;;;;;;9.80;7.07;;;;;;;17.22;100.00;100492.41;4915365;29;20207;-47
2023/08/26 02:59:40;;;;;;;7.43;6.72;;;;;;;17.22;100.00;100489.72;4918762;29;20223;-47
2023/08/26 03:02:07;;;;;;;7.97;7.18;;;;;;;17.21;100.00;100488.00;4920404;29;20251;-47
2023/08/26 03:04:35;;;;;;;9.00;8.10;;;;;;;17.14;100.00;100487.53;4932062;29;20229;-47
2023/08/26 03:07:01;;;;;;;8.13;7.20;;;;;;;17.16;100.00;100487.44;4907589;29;20172;-47
2023/08/26 03:09:28;;;;;;;11.85;7.75;;;;;;;17.17;100.00;100481.06;4938419;28;20690;-47
2023/08/26 03:11:55;;;;;;;8.80;7.90;;;;;;;17.18;100.00;100472.81;4903160;29;20180;-47
2023/08/26 03:14:21;;;;;;;11.05;8.20;;;;;;;17.20;100.00;100470.84;4914477;29;20176;-48
2023/08/26 03:16:46;;;;;;;10.25;9.35;;;;;;;17.16;100.00;100471.19;4931525;29;20187;-49
2023/08/26 03:19:12;;;;;;;9.35;8.40;;;;;;;17.19;100.00;100473.69;4921513;29;20215;-47
2023/08/26 03:21:38;;;;;;;10.52;8.55;;;;;;;17.14;100.00;100478.56;4916365;29;20654;-47
2023/08/26 03:24:05;;;;;;;10.30;9.23;;;;;;;16.92;100.00;100485.47;4927039;29;20678;-48
2023/08/26 03:26:31;;;;;;;9.93;8.95;;;;;;;16.98;100.00;100478.78;4920455;29;20183;-47
2023/08/26 03:28:58;;;;;;;7.70;7.05;;;;;;;17.07;100.00;100470.88;4896488;29;20294;-48
2023/08/26 03:31:23;;;;;;;7.95;7.25;;;;;;;17.13;100.00;100468.72;4914966;29;20718;-48
2023/08/26 03:33:49;;;;;;;10.05;9.05;;;;;;;17.07;100.00;100460.03;4911486;29;20552;-46
2023/08/26 03:36:16;;;;;;;9.20;7.72;;;;;;;17.06;100.00;100458.31;4919163;29;20215;-48
2023/08/26 03:38:41;;;;;;;10.98;8.90;;;;;;;16.98;100.00;100459.84;4915582;29;20231;-47
2023/08/26 03:41:07;;;;;;;9.93;8.07;;;;;;;17.03;100.00;100455.84;4913105;29;20235;-49
2023/08/26 03:43:33;;;;;;;12.32;10.57;;;;;;;16.93;100.00;100462.03;4933952;29;20176;-48
2023/08/26 03:45:59;;;;;;;11.68;10.60;;;;;;;16.84;100.00;100466.25;4917249;29;20550;-47
2023/08/26 03:48:24;;;;;;;18.05;12.57;;;;;;;16.87;100.00;100475.00;4914821;29;20184;-47
2023/08/26 03:50:51;;;;;;;16.17;14.13;;;;;;;16.81;100.00;100467.28;4928921;29;20176;-46
2023/08/26 03:53:17;;;;;;;18.55;15.23;;;;;;;16.84;100.00;100463.53;4921080;29;20240;-46
2023/08/26 03:55:44;;;;;;;19.23;15.85;;;;;;;16.83;100.00;100459.94;4913305;29;20188;-48
2023/08/26 03:58:09;;;;;;;25.63;20.38;;;;;;;16.84;100.00;100469.81;4928844;29;20242;-46
2023/08/26 04:00:36;;;;;;;23.33;19.52;;;;;;;16.87;100.00;100472.28;4914202;29;20215;-47
2023/08/26 04:03:09;;;;;;;27.10;22.17;;;;;;;16.82;100.00;100470.88;4916828;29;20615;-47
2023/08/26 04:05:35;;;;;;;34.97;23.92;;;;;;;16.76;100.00;100457.75;4909435;29;20599;-47
2023/08/26 04:08:00;;;;;;;31.63;24.02;;;;;;;16.66;100.00;100460.22;4913484;29;20729;-47
2023/08/26 04:10:26;;;;;;;29.85;24.13;;;;;;;16.72;100.00;100458.94;4934573;28;20255;-47
2023/08/26 04:12:52;;;;;;;29.17;22.80;;;;;;;16.68;100.00;100461.88;4913201;29;20681;-47
2023/08/26 04:15:18;;;;;;;30.48;23.73;;;;;;;16.72;100.00;100472.47;4913346;29;20176;-46
2023/08/26 04:17:44;;;;;;;31.50;24.15;;;;;;;16.77;100.00;100465.78;4929885;29;20202;-48
2023/08/26 04:20:11;;;;;;;35.65;24.90;;;;;;;16.73;100.00;100468.81;4916131;29;20259;-47
2023/08/26 04:22:37;;;;;;;30.80;23.63;;;;;;;16.69;100.00;100477.13;4914289;29;20279;-46
2023/08/26 04:25:07;;;;;;;30.55;22.52;;;;;;;16.69;100.00;100484.38;4929748;29;20669;-48
2023/08/26 04:27:34;;;;;;;23.80;19.75;;;;;;;16.65;100.00;100481.00;4910772;29;20179;-46
2023/08/26 04:30:02;;;;;;;24.15;20.40;;;;;;;16.71;100.00;100484.28;4912380;29;20217;-47
2023/08/26 04:32:29;;;;;;;23.52;20.50;;;;;;;16.61;100.00;100484.88;4914057;29;20272;-46
2023/08/26 04:34:54;;;;;;;24.90;20.75;;;;;;;16.63;100.00;100484.78;4926703;29;20321;-48
2023/08/26 04:37:23;;;;;;;24.50;19.70;;;;;;;16.59;100.00;100475.16;4914739;29;20230;-47
2023/08/26 04:39:50;;;;;;;22.73;17.98;;;;;;;16.70;100.00;100488.78;4927330;29;20203;-49
2023/08/26 04:42:15;;;;;;;22.67;18.70;;;;;;;16.66;100.00;100498.09;4915431;29;20192;-47
2023/08/26 04:44:41;;;;;;;24.50;19.75;;;;;;;16.63;100.00;100501.88;4916160;29;20232;-46
2023/08/26 04:47:07;;;;;;;25.52;19.17;;;;;;;16.64;100.00;100492.81;4912321;29;20215;-47
2023/08/26 04:49:32;;;;;;;21.85;19.30;;;;;;;16.66;100.00;100488.16;4915488;29;20607;-46
2023/08/26 04:51:59;;;;;;;21.27;18.77;;;;;;;16.66;100.00;100500.78;4929310;29;20179;-46
2023/08/26 04:54:25;;;;;;;22.73;19.10;;;;;;;16.67;100.00;100484.47;4914987;29;20190;-46
2023/08/26 04:56:51;;;;;;;29.05;21.13;;;;;;;16.65;100.00;100485.56;4928063;28;20183;-47
2023/08/26 04:59:16;;;;;;;25.38;21.25;;;;;;;16.68;100.00;100483.50;4977240;23;20227;-45
2023/08/26 05:01:42;;;;;;;32.83;23.20;;;;;;;16.66;100.00;100489.97;4951201;28;20175;-47
2023/08/26 05:04:07;;;;;;;43.47;23.85;;;;;;;16.63;100.00;100501.03;4931320;28;20182;-51
2023/08/26 05:06:33;;;;;;;30.75;24.45;;;;;;;16.69;100.00;100497.91;4938096;28;20186;-47
2023/08/26 05:08:59;;;;;;;28.83;23.73;;;;;;;16.67;100.00;100500.69;4953012;28;20190;-48
2023/08/26 05:11:24;;;;;;;36.33;26.88;;;;;;;16.69;100.00;100503.31;4953458;28;20190;-49
2023/08/26 05:13:50;;;;;;;30.50;24.75;;;;;;;16.74;100.00;100500.28;4937217;28;20556;-47
2023/08/26 05:16:16;;;;;;;33.10;25.90;;;;;;;16.75;100.00;100500.19;4960855;28;20179;-48
2023/08/26 05:18:41;;;;;;;31.92;25.40;;;;;;;16.78;100.00;100505.38;4950922;28;20250;-47
2023/08/26 05:21:07;;;;;;;24.65;21.75;;;;;;;16.82;100.00;100515.03;4952590;28;20598;-52
2023/08/26 05:23:32;;;;;;;28.95;25.42;;;;;;;16.72;100.00;100507.63;4927918;28;20629;-46
2023/08/26 05:25:58;;;;;;;30.95;24.35;;;;;;;16.81;100.00;100512.44;4955494;28;20175;-47
2023/08/26 05:28:23;;;;;;;28.10;24.98;;;;;;;16.83;100.00;100508.66;4937042;29;20270;-48
2023/08/26 05:30:49;;;;;;;30.85;24.77;;;;;;;16.86;100.00;100508.44;4943717;28;20349;-47
2023/08/26 05:33:15;;;;;;;28.55;23.77;;;;;;;16.81;100.00;100515.13;4931776;29;20183;-46
2023/08/26 05:35:42;;;;;;;27.80;23.55;;;;;;;16.84;100.00;100529.34;4940726;29;20253;-46
2023/08/26 05:38:08;;;;;;;28.15;24.20;;;;;;;16.86;100.00;100519.28;4947676;29;20309;-51
2023/08/26 05:40:34;;;;;;;29.17;25.02;;;;;;;16.92;100.00;100534.19;4941514;28;20356;-47
2023/08/26 05:43:00;;;;;;;31.70;26.52;;;;;;;16.99;100.00;100534.63;4934946;29;20178;-48
2023/08/26 05:45:26;;;;;;;32.97;25.83;;;;;;;16.90;100.00;100544.25;4958235;28;20672;-46
2023/08/26 05:47:52;;;;;;;30.23;25.20;;;;;;;16.87;100.00;100547.19;4943641;28;20183;-47
2023/08/26 05:50:19;;;;;;;31.50;25.30;;;;;;;16.93;100.00;100545.91;4934876;29;20199;-52
2023/08/26 05:52:45;;;;;;;33.53;25.65;;;;;;;16.90;100.00;100538.84;4932854;29;20877;-45
2023/08/26 05:55:11;;;;;;;32.92;25.40;;;;;;;16.92;100.00;100547.72;4936002;29;20587;-47
2023/08/26 05:57:38;;;;;;;36.45;26.65;;;;;;;16.92;100.00;100550.44;4964724;28;20273;-46
2023/08/26 06:00:06;;;;;;;34.45;25.40;;;;;;;16.95;100.00;100557.50;4935414;29;20794;-51
2023/08/26 06:02:42;;;;;;;33.70;24.88;;;;;;;16.98;100.00;100565.41;4952214;28;20651;-44
2023/08/26 06:05:08;;;;;;;40.55;27.67;;;;;;;16.98;100.00;100568.09;4934235;29;20179;-49
2023/08/26 06:07:35;;;;;;;34.88;25.00;;;;;;;17.06;100.00;100561.19;4942792;29;20186;-49
2023/08/26 06:10:01;;;;;;;38.30;26.95;;;;;;;17.01;100.00;100566.06;4934029;29;20195;-48
2023/08/26 06:12:26;;;;;;;33.47;26.77;;;;;;;17.04;100.00;100576.66;4948872;28;20179;-52
2023/08/26 06:14:52;;;;;;;34.50;24.85;;;;;;;17.13;100.00;100577.84;4933575;28;20273;-45
2023/08/26 06:17:17;;;;;;;37.55;26.35;;;;;;;17.12;100.00;100568.03;4951280;28;20267;-46
2023/08/26 06:19:43;;;;;;;34.50;25.10;;;;;;;17.15;100.00;100569.63;4951237;28;20254;-50
2023/08/26 06:22:09;;;;;;;34.13;25.35;;;;;;;17.22;100.00;100563.66;4945044;28;20179;-47
2023/08/26 06:24:35;;;;;;;33.53;25.25;;;;;;;17.36;100.00;100560.00;4956735;28;20190;-44
2023/08/26 06:27:01;;;;;;;35.63;26.42;;;;;;;17.40;100.00;100571.47;4951552;28;20504;-47
2023/08/26 06:29:26;;;;;;;32.22;25.70;;;;;;;17.54;100.00;100565.94;4926791;29;20294;-47
2023/08/26 06:31:52;;;;;;;37.28;26.63;;;;;;;17.48;100.00;100564.53;4932834;28;20275;-48
2023/08/26 06:34:18;;;;;;;33.13;25.42;;;;;;;17.52;100.00;100561.63;4939967;28;20210;-48
2023/08/26 06:36:45;;;;;;;27.50;23.77;;;;;;;17.59;100.00;100554.78;4935718;28;20179;-45
2023/08/26 06:39:11;;;;;;;33.78;26.73;;;;;;;17.48;100.00;100566.38;4946783;28;20206;-53
2023/08/26 06:41:37;;;;;;;30.40;24.75;;;;;;;17.56;100.00;100563.09;4951115;28;20210;-50
2023/08/26 06:44:04;;;;;;;34.28;27.15;;;;;;;17.55;100.00;100564.97;4934926;28;20167;-46
2023/08/26 06:46:31;;;;;;;35.42;27.77;;;;;;;17.47;100.00;100568.22;4943578;28;20189;-47
2023/08/26 06:48:58;;;;;;;32.72;26.90;;;;;;;17.50;100.00;100568.00;4933572;29;20617;-53
2023/08/26 06:51:24;;;;;;;36.13;27.05;;;;;;;17.43;100.00;100573.97;4950963;28;20229;-47
2023/08/26 06:53:50;;;;;;;35.83;27.60;;;;;;;17.48;100.00;100569.94;4950924;28;20640;-46
2023/08/26 06:56:16;;;;;;;35.95;28.92;;;;;;;17.51;100.00;100558.03;4935397;29;20237;-46
2023/08/26 06:58:42;;;;;;;35.05;28.08;;;;;;;17.53;100.00;100566.06;4945108;28;20302;-50
2023/08/26 07:01:07;;;;;;;35.78;26.88;;;;;;;17.60;100.00;100567.34;4949685;28;20187;-47
2023/08/26 07:03:33;;;;;;;35.53;26.40;;;;;;;17.60;100.00;100559.22;4940132;28;20186;-47
2023/08/26 07:05:58;;;;;;;30.58;24.38;;;;;;;17.92;100.00;100570.47;4950623;28;20237;-52
2023/08/26 07:08:24;;;;;;;27.40;23.55;;;;;;;17.84;100.00;100570.16;4945241;28;20260;-45
2023/08/26 07:10:49;;;;;;;23.02;19.50;;;;;;;17.90;100.00;100562.44;4950147;28;20183;-47
2023/08/26 07:13:15;;;;;;;21.13;17.65;;;;;;;17.78;100.00;100551.63;4950688;28;20620;-53
2023/08/26 07:15:40;;;;;;;15.38;12.80;;;;;;;17.74;100.00;100563.66;4956092;28;20997;-44
2023/08/26 07:18:06;;;;;;;13.13;11.57;;;;;;;18.11;100.00;100562.72;4957036;28;20209;-49
2023/08/26 07:20:32;;;;;;;15.85;10.88;;;;;;;18.41;100.00;100557.81;4952131;28;20210;-48
2023/08/26 07:22:57;;;;;;;9.70;8.70;;;;;;;18.63;100.00;100547.06;4950159;28;20193;-45
2023/08/26 07:25:23;;;;;;;9.32;7.78;;;;;;;18.96;100.00;100531.03;4955790;28;20185;-49
2023/08/26 07:27:49;;;;;;;7.50;6.53;;;;;;;19.32;100.00;100525.41;4949081;28;20633;-46
2023/08/26 07:30:14;;;;;;;8.43;5.85;;;;;;;19.49;100.00;100524.06;4930526;29;20194;-48
2023/08/26 07:32:41;;;;;;;8.10;4.70;;;;;;;19.81;100.00;100520.63;4947481;28;20198;-52
2023/08/26 07:35:08;;;;;;;5.65;4.88;;;;;;;19.84;100.00;100514.91;4952478;28;20286;-49
2023/08/26 07:37:33;;;;;;;4.95;4.45;;;;;;;19.86;100.00;100515.66;4950000;28;20564;-47
2023/08/26 07:40:00;;;;;;;5.15;4.20;;;;;;;19.83;100.00;100504.16;4950898;28;20213;-47
2023/08/26 07:42:26;;;;;;;5.47;4.00;;;;;;;19.94;100.00;100513.19;4950462;28;20245;-47
2023/08/26 07:44:51;;;;;;;6.50;4.00;;;;;;;19.88;100.00;100523.69;4952801;28;20178;-47
2023/08/26 07:47:18;;;;;;;5.95;3.88;;;;;;;19.92;100.00;100508.84;4938114;28;20265;-48
2023/08/26 07:49:44;;;;;;;4.07;3.58;;;;;;;20.19;100.00;100522.00;4952237;28;20213;-49
2023/08/26 07:52:09;;;;;;;4.20;3.13;;;;;;;19.83;100.00;100526.78;4950388;28;20186;-47
2023/08/26 07:54:35;;;;;;;3.40;2.83;;;;;;;19.96;100.00;100518.47;4957975;28;20182;-51
2023/08/26 07:57:01;;;;;;;3.85;2.67;;;;;;;20.06;100.00;100516.72;4948119;28;20241;-45
2023/08/26 07:59:27;;;;;;;3.85;2.58;;;;;;;20.19;100.00;100515.72;4956790;28;20225;-47
2023/08/26 08:01:52;;;;;;;4.45;2.15;;;;;;;20.06;100.00;100524.88;4952767;28;20174;-52
2023/08/26 08:04:18;;;;;;;4.53;2.10;;;;;;;20.27;100.00;100519.50;4958915;28;20264;-46
2023/08/26 08:06:43;;;;;;;4.22;1.50;;;;;;;20.27;100.00;100522.22;4947248;28;20210;-46
2023/08/26 08:09:09;;;;;;;2.53;1.70;;;;;;;20.33;100.00;100529.00;4949732;28;20206;-52
2023/08/26 08:11:34;;;;;;;3.85;1.48;;;;;;;20.29;100.00;100527.53;4946801;29;20553;-46
2023/08/26 08:14:00;;;;;;;4.00;1.77;;;;;;;20.28;100.00;100528.53;4949359;28;20178;-46
2023/08/26 08:16:25;;;;;;;5.15;1.77;;;;;;;20.30;100.00;100521.97;4948493;28;20578;-49
2023/08/26 08:18:51;;;;;;;4.43;1.77;;;;;;;20.54;99.65;100521.75;4949614;28;20236;-46
2023/08/26 08:21:16;;;;;;;2.95;1.85;;;;;;;21.03;98.51;100532.16;4949608;28;20179;-45
2023/08/26 08:23:43;;;;;;;5.50;1.90;;;;;;;20.69;97.77;100526.91;4948907;28;20622;-50
2023/08/26 08:26:11;;;;;;;3.78;2.13;;;;;;;20.76;97.07;100514.50;4948599;28;20214;-49
2023/08/26 08:28:36;;;;;;;2.55;1.55;;;;;;;20.90;95.09;100519.63;4947695;28;20178;-47
2023/08/26 08:31:02;;;;;;;4.55;1.88;;;;;;;20.99;94.62;100518.81;4949104;28;20229;-45
2023/08/26 08:33:27;;;;;;;4.07;1.75;;;;;;;21.64;94.69;100525.91;4952939;28;20303;-49
2023/08/26 08:35:53;;;;;;;3.08;1.48;;;;;;;21.58;92.09;100525.47;4947021;28;20194;-48
2023/08/26 08:38:18;;;;;;;2.35;1.50;;;;;;;21.56;90.06;100526.63;4953143;28;20732;-46
2023/08/26 08:40:44;;;;;;;3.15;1.70;;;;;;;21.83;89.00;100525.13;4955113;28;20200;-43
2023/08/26 08:43:12;;;;;;;4.07;1.60;;;;;;;21.50;87.49;100524.44;4949970;28;20219;-48
2023/08/26 08:45:38;;;;;;;5.22;2.17;;;;;;;21.23;87.19;100538.59;4950625;28;20589;-48
2023/08/26 08:48:04;;;;;;;2.33;1.50;;;;;;;21.30;87.39;100537.06;4952931;28;20205;-51
2023/08/26 08:50:31;;;;;;;3.53;1.77;;;;;;;21.48;86.58;100540.06;4953139;28;20223;-48
2023/08/26 08:52:58;;;;;;;2.42;1.60;;;;;;;21.42;86.34;100537.88;4949560;28;20201;-47
2023/08/26 08:55:24;;;;;;;3.38;1.65;;;;;;;21.40;86.00;100541.53;4953321;28;20181;-45
2023/08/26 08:57:52;;;;;;;2.95;2.05;;;;;;;21.69;85.38;100535.41;4952860;28;20268;-47
2023/08/26 09:00:19;;;;;;;4.05;2.08;;;;;;;20.69;83.58;100533.22;4952496;28;20230;-45
2023/08/26 09:02:46;;;;;;;4.80;2.00;;;;;;;20.72;83.78;100541.13;4947336;28;20182;-52
2023/08/26 09:05:12;;;;;;;5.32;1.80;;;;;;;20.32;84.72;100547.19;4951499;28;20296;-46
2023/08/26 09:07:42;;;;;;;5.15;1.70;;;;;;;19.86;85.37;100556.44;4932381;28;20551;-48
2023/08/26 09:10:11;;;;;;;2.70;1.70;;;;;;;19.65;85.39;100558.16;4949171;28;20200;-50
2023/08/26 09:12:37;;;;;;;3.00;1.75;;;;;;;19.25;84.58;100556.75;4944188;28;20198;-47
2023/08/26 09:15:04;;;;;;;5.07;1.85;;;;;;;19.02;83.88;100550.44;4960287;28;20229;-47
2023/08/26 09:17:30;;;;;;;3.85;1.30;;;;;;;18.89;83.81;100553.25;4950298;28;20305;-48
2023/08/26 09:19:58;;;;;;;2.60;1.40;;;;;;;19.17;82.86;100550.19;4947910;28;20230;-46
2023/08/26 09:22:31;;;;;;;4.13;1.60;;;;;;;19.08;81.70;100541.78;4952030;28;20191;-47
2023/08/26 09:24:58;;;;;;;1.52;1.42;;;;;;;19.33;81.40;100546.16;4950742;28;20671;-50
2023/08/26 09:27:24;;;;;;;4.85;1.63;;;;;;;19.37;81.10;100557.63;4949996;28;20188;-45
2023/08/26 09:29:51;;;;;;;1.63;1.50;;;;;;;19.87;81.01;100552.72;4948365;28;20214;-46
2023/08/26 09:32:31;;;;;;;2.70;1.55;;;;;;;20.33;79.74;100548.94;4952400;28;20249;-45
2023/08/26 09:35:13;;;;;;;4.30;1.48;;;;;;;20.70;77.92;100540.38;4954460;28;20210;-45
2023/08/26 09:37:40;;;;;;;2.75;1.75;;;;;;;;;;4952060;28;20210;-47
2023/08/26 09:40:06;;;;;;;3.80;1.60;;;;;;;21.41;75.94;100523.38;4944054;28;20297;-49
2023/08/26 09:42:33;;;;;;;2.10;1.77;;;;;;;21.39;75.78;100528.06;4955166;28;20189;-50
2023/08/26 09:44:59;;;;;;;2.55;1.58;;;;;;;21.54;74.30;100518.56;4942024;28;20657;-45
2023/08/26 09:47:29;;;;;;;2.85;1.55;;;;;;;21.97;73.63;100527.44;4945935;28;20190;-48
2023/08/26 09:49:54;;;;;;;2.47;1.60;;;;;;;21.88;72.11;100515.50;4951301;28;20214;-48
2023/08/26 09:52:20;;;;;;;4.90;1.73;;;;;;;21.53;72.61;100519.53;4948392;29;20189;-45
2023/08/26 09:54:46;;;;;;;2.03;1.58;;;;;;;21.62;71.99;100506.97;4945010;28;20660;-45
2023/08/26 09:57:11;;;;;;;3.22;1.55;;;;;;;21.81;71.32;100503.44;4948711;28;20178;-46
2023/08/26 09:59:38;;;;;;;3.38;1.40;;;;;;;21.93;71.19;100505.06;4934082;29;20731;-49
2023/08/26 10:02:15;;;;;;;3.40;1.50;;;;;;;21.58;70.62;100508.22;4951651;28;20214;-48
2023/08/26 10:04:45;;;;;;;2.92;1.33;;;;;;;21.11;69.63;100505.97;4951202;28;20204;-49
2023/08/26 10:07:11;;;;;;;3.80;1.35;;;;;;;21.32;68.12;100489.59;4951834;28;20286;-45
2023/08/26 10:09:50;;;;;;;1.20;1.10;;;;;;;20.89;64.72;100459.84;4949516;28;20202;-46
2023/08/26 10:12:27;;;;;;;2.17;1.10;;;;;;;21.39;63.36;100457.22;4951112;28;20196;-48
2023/08/26 10:14:56;;;;;;;2.95;1.10;;;;;;;21.72;63.03;100460.66;4950458;28;20186;-48
2023/08/26 10:17:25;;;;;;;2.20;0.98;;;;;;;22.08;62.85;100464.56;4947758;28;20202;-45
2023/08/26 10:19:52;;;;;;;3.03;1.23;;;;;;;21.37;63.09;100456.50;4945701;28;20257;-47
2023/08/26 10:22:17;;;;;;;1.73;0.80;;;;;;;22.34;61.72;100456.72;4934157;29;20237;-45
2023/08/26 10:24:44;;;;;;;2.28;0.80;;;;;;;22.46;62.64;100468.38;4945694;28;20587;-47
2023/08/26 10:27:10;;;;;;;1.73;1.10;;;;;;;22.63;63.00;100480.44;4934302;29;20486;-46
2023/08/26 10:29:36;;;;;;;4.90;1.20;;;;;;;22.35;61.92;100468.53;4945675;29;20257;-45
2023/08/26 10:32:18;;;;;;;1.92;1.23;;;;;;;22.05;62.57;100464.88;4948132;28;20193;-46
2023/08/26 10:34:57;;;;;;;3.13;1.13;;;;;;;22.19;63.46;100467.19;4948203;28;20190;-50
2023/08/26 10:37:27;;;;;;;2.08;0.90;;;;;;;22.20;62.25;100468.03;4945471;28;20308;-45
2023/08/26 10:39:54;;;;;;;6.25;1.10;;;;;;;22.59;62.75;100474.38;4948984;28;20370;-46
2023/08/26 10:42:20;;;;;;;1.58;0.95;;;;;;;22.48;61.63;100466.34;4944248;28;20190;-45
2023/08/26 10:44:56;;;;;;;2.97;0.98;;;;;;;22.08;61.89;100467.31;4948951;28;20179;-44
2023/08/26 10:47:38;;;;;;;3.25;1.05;;;;;;;22.37;61.77;100480.16;4951018;28;20369;-45
2023/08/26 10:50:26;;;;;;;2.83;1.00;;;;;;;22.05;59.94;100462.13;4948883;28;20206;-47
2023/08/26 10:52:56;;;;;;;3.55;1.10;;;;;;;22.35;59.86;100465.78;4949379;28;20720;-44
2023/08/26 10:55:34;;;;;;;1.83;0.77;;;;;;;21.97;58.67;100453.78;4949398;28;20660;-46
2023/08/26 10:58:11;;;;;;;3.33;1.00;;;;;;;21.76;59.72;100473.88;4946284;28;20277;-46
2023/08/26 11:00:39;;;;;;;1.50;0.80;;;;;;;22.15;58.78;100456.69;4941790;28;20526;-50
2023/08/26 11:03:08;;;;;;;2.17;0.50;;;;;;;22.00;57.97;100462.56;4946464;28;20182;-46
2023/08/26 11:05:39;;;;;;;2.92;0.90;;;;;;;21.71;59.48;100486.19;4967069;23;20708;-42
2023/08/26 11:08:05;;;;;;;1.75;0.90;;;;;;;21.79;59.74;100481.75;4956294;28;20185;-44
2023/08/26 11:10:41;;;;;;;0.95;0.63;;;;;;;22.02;58.78;100476.06;4960195;28;20202;-44
2023/08/26 11:13:07;;;;;;;1.40;0.70;;;;;;;21.78;58.70;100473.72;4957473;28;20288;-44